createdAt,value
2022-08-17T00:02:25.470Z,22.30
2022-08-17T00:04:53.935Z,22.30
2022-08-17T00:07:20.521Z,22.20
2022-08-17T00:09:50.452Z,22.20
2022-08-17T00:12:43.116Z,22.20
2022-08-17T00:15:05.779Z,22.10
2022-08-17T00:17:37.570Z,22.10
2022-08-17T00:20:05.067Z,22.00
2022-08-17T00:22:36.492Z,22.10
2022-08-17T00:25:05.669Z,22.00
2022-08-17T00:27:33.312Z,22.00
2022-08-17T00:29:59.914Z,21.90
2022-08-17T00:35:17.627Z,21.80
2022-08-17T00:40:13.880Z,21.90
2022-08-17T00:42:41.977Z,21.80
2022-08-17T00:45:12.152Z,21.80
2022-08-17T00:50:09.858Z,21.70
2022-08-17T00:52:43.242Z,21.70
2022-08-17T00:55:11.032Z,21.60
2022-08-17T00:57:45.580Z,21.50
2022-08-17T01:00:15.749Z,21.40
2022-08-17T01:02:45.180Z,21.40
2022-08-17T01:05:20.776Z,21.50
2022-08-17T01:07:50.670Z,21.50
2022-08-17T01:10:59.306Z,21.50
2022-08-17T01:13:11.109Z,21.50
2022-08-17T01:15:41.375Z,21.50
2022-08-17T01:18:13.967Z,21.40
2022-08-17T01:20:53.246Z,21.50
2022-08-17T01:23:23.414Z,21.50
2022-08-17T01:25:53.254Z,21.40
2022-08-17T01:28:53.073Z,21.30
2022-08-17T01:31:08.714Z,21.30
2022-08-17T01:33:35.912Z,21.20
2022-08-17T01:41:06.298Z,21.10
2022-08-17T01:43:39.514Z,21.00
2022-08-17T01:46:06.546Z,21.00
2022-08-17T01:48:35.345Z,21.00
2022-08-17T01:51:02.562Z,21.00
2022-08-17T01:53:34.760Z,20.90
2022-08-17T01:56:09.881Z,21.00
2022-08-17T01:58:38.062Z,21.00
2022-08-17T02:01:05.910Z,20.90
2022-08-17T02:03:34.600Z,20.90
2022-08-17T02:06:02.970Z,20.90
2022-08-17T02:08:39.300Z,20.80
2022-08-17T02:13:55.031Z,20.70
2022-08-17T02:16:29.072Z,20.60
2022-08-17T02:19:07.174Z,20.70
2022-08-17T02:21:34.220Z,20.60
2022-08-17T02:24:01.014Z,20.60
2022-08-17T02:26:28.032Z,20.60
2022-08-17T02:28:54.814Z,20.60
2022-08-17T02:31:21.457Z,20.60
2022-08-17T02:34:03.528Z,20.60
2022-08-17T02:36:33.922Z,20.70
2022-08-17T02:39:06.465Z,20.70
2022-08-17T02:41:33.259Z,20.70
2022-08-17T02:44:00.236Z,20.80
2022-08-17T02:46:26.929Z,20.60
2022-08-17T02:48:53.554Z,20.60
2022-08-17T02:51:20.151Z,20.50
2022-08-17T02:53:46.811Z,20.50
2022-08-17T02:56:13.452Z,20.60
2022-08-17T03:01:09.187Z,20.70
2022-08-17T03:03:39.823Z,20.60
2022-08-17T03:06:07.554Z,20.70
2022-08-17T03:08:34.633Z,20.60
2022-08-17T03:11:01.552Z,20.60
2022-08-17T03:13:28.248Z,20.50
2022-08-17T03:15:54.848Z,20.50
2022-08-17T03:18:25.345Z,20.50
2022-08-17T03:20:54.365Z,20.50
2022-08-17T03:23:24.307Z,20.40
2022-08-17T03:25:53.513Z,20.40
2022-08-17T03:28:21.461Z,20.40
2022-08-17T03:30:48.250Z,20.40
2022-08-17T03:33:16.116Z,20.30
2022-08-17T03:35:43.263Z,20.30
2022-08-17T03:38:11.440Z,20.20
2022-08-17T03:40:57.676Z,20.30
2022-08-17T03:43:27.571Z,20.30
2022-08-17T03:46:28.896Z,20.30
2022-08-17T03:49:18.030Z,20.30
2022-08-17T03:52:03.506Z,20.40
2022-08-17T03:54:48.872Z,20.40
2022-08-17T03:57:16.238Z,20.30
2022-08-17T03:59:45.175Z,20.30
2022-08-17T04:02:23.343Z,20.30
2022-08-17T04:04:50.811Z,20.30
2022-08-17T04:07:19.376Z,20.10
2022-08-17T04:09:46.174Z,20.10
2022-08-17T04:12:16.006Z,20.20
2022-08-17T04:14:52.854Z,20.20
2022-08-17T04:17:23.739Z,20.10
2022-08-17T04:19:50.386Z,20.10
2022-08-17T04:22:31.766Z,20.10
2022-08-17T04:25:08.942Z,20.20
2022-08-17T04:27:36.306Z,20.20
2022-08-17T04:30:03.357Z,20.20
2022-08-17T04:33:03.640Z,20.20
2022-08-17T04:35:20.078Z,20.10
2022-08-17T04:37:47.337Z,20.40
2022-08-17T04:43:05.515Z,20.50
2022-08-17T04:45:32.714Z,20.30
2022-08-17T04:48:00.529Z,20.00
2022-08-17T04:50:27.599Z,19.90
2022-08-17T04:52:54.304Z,19.90
2022-08-17T04:55:21.370Z,19.80
2022-08-17T04:57:48.052Z,19.90
2022-08-17T05:00:14.961Z,20.00
2022-08-17T05:02:49.910Z,19.90
2022-08-17T05:05:23.037Z,19.80
2022-08-17T05:07:56.468Z,19.70
2022-08-17T05:10:25.364Z,19.70
2022-08-17T05:13:23.740Z,19.80
2022-08-17T05:15:59.890Z,19.80
2022-08-17T05:18:27.580Z,19.90
2022-08-17T05:20:54.792Z,20.00
2022-08-17T05:23:24.217Z,19.90
2022-08-17T05:25:54.518Z,20.00
2022-08-17T05:28:24.191Z,20.00
2022-08-17T05:30:56.672Z,20.00
2022-08-17T05:33:26.269Z,20.00
2022-08-17T05:35:59.018Z,20.10
2022-08-17T05:38:28.732Z,20.10
2022-08-17T05:40:56.024Z,20.20
2022-08-17T05:43:30.241Z,20.20
2022-08-17T05:46:26.161Z,20.30
2022-08-17T05:49:03.409Z,20.30
2022-08-17T05:52:03.895Z,20.30
2022-08-17T05:55:14.209Z,20.40
2022-08-17T05:57:59.790Z,20.50
2022-08-17T06:00:50.632Z,20.50
2022-08-17T06:03:39.456Z,20.60
2022-08-17T06:06:11.371Z,20.70
2022-08-17T06:09:37.101Z,20.70
2022-08-17T06:12:25.067Z,20.70
2022-08-17T06:15:10.588Z,20.60
2022-08-17T06:17:37.860Z,21.00
2022-08-17T06:20:15.850Z,21.00
2022-08-17T06:22:50.017Z,21.10
2022-08-17T06:25:31.435Z,21.20
2022-08-17T06:28:07.641Z,21.40
2022-08-17T06:31:00.624Z,21.50
2022-08-17T06:33:33.983Z,21.60
2022-08-17T06:36:16.022Z,21.70
2022-08-17T06:39:03.026Z,21.80
2022-08-17T06:41:55.762Z,22.00
2022-08-17T06:44:43.583Z,22.10
2022-08-17T06:47:31.510Z,22.10
2022-08-17T06:50:17.088Z,22.30
2022-08-17T06:53:09.977Z,22.40
2022-08-17T06:55:45.058Z,22.50
2022-08-17T06:58:16.660Z,22.60
2022-08-17T07:00:47.026Z,22.70
2022-08-17T07:03:41.349Z,22.80
2022-08-17T07:06:27.631Z,22.90
2022-08-17T07:09:23.276Z,23.00
2022-08-17T07:12:11.405Z,23.00
2022-08-17T07:14:51.405Z,23.00
2022-08-17T07:17:19.360Z,23.10
2022-08-17T07:19:48.890Z,23.10
2022-08-17T07:23:00.249Z,23.10
2022-08-17T07:25:28.470Z,23.20
2022-08-17T07:27:59.697Z,23.10
2022-08-17T07:30:44.626Z,23.20
2022-08-17T07:33:20.103Z,23.20
2022-08-17T07:35:48.262Z,23.30
2022-08-17T07:38:25.664Z,23.30
2022-08-17T07:41:03.008Z,23.30
2022-08-17T07:43:52.181Z,23.30
2022-08-17T07:46:41.175Z,23.40
2022-08-17T07:49:10.496Z,23.40
2022-08-17T07:51:52.687Z,23.50
2022-08-17T07:54:24.489Z,23.50
2022-08-17T07:56:54.214Z,23.50
2022-08-17T07:59:24.792Z,23.50
2022-08-17T08:01:57.964Z,23.50
2022-08-17T08:07:20.429Z,23.60
2022-08-17T08:10:06.137Z,23.70
2022-08-17T08:12:44.874Z,23.70
2022-08-17T08:15:22.766Z,23.70
2022-08-17T08:17:52.402Z,23.70
2022-08-17T08:20:40.862Z,23.80
2022-08-17T08:23:29.440Z,24.10
2022-08-17T08:26:01.382Z,24.30
2022-08-17T08:28:49.257Z,24.90
2022-08-17T08:33:54.852Z,24.50
2022-08-17T08:37:14.063Z,24.40
2022-08-17T08:40:08.152Z,24.40
2022-08-17T08:43:02.240Z,24.40
2022-08-17T08:45:50.962Z,24.30
2022-08-17T08:48:52.794Z,24.40
2022-08-17T08:51:23.633Z,24.50
2022-08-17T08:54:01.636Z,24.50
2022-08-17T08:56:37.266Z,24.40
2022-08-17T08:59:27.981Z,24.40
2022-08-17T09:02:28.789Z,24.40
2022-08-17T09:05:16.346Z,24.50
2022-08-17T09:08:01.601Z,24.40
2022-08-17T09:10:50.097Z,24.50
2022-08-17T09:13:44.202Z,24.60
2022-08-17T09:16:33.053Z,24.60
2022-08-17T09:19:14.855Z,24.60
2022-08-17T09:21:54.439Z,24.60
2022-08-17T09:24:33.409Z,24.60
2022-08-17T09:27:03.082Z,24.70
2022-08-17T09:29:34.792Z,24.80
2022-08-17T09:32:17.444Z,24.70
2022-08-17T09:34:53.464Z,24.70
2022-08-17T09:37:29.653Z,24.60
2022-08-17T09:40:19.786Z,24.70
2022-08-17T09:43:09.349Z,24.70
2022-08-17T09:45:43.321Z,24.80
2022-08-17T09:48:19.363Z,24.70
2022-08-17T09:51:06.003Z,24.70
2022-08-17T09:53:36.182Z,24.70
2022-08-17T09:56:31.772Z,24.80
2022-08-17T09:59:20.402Z,24.70
2022-08-17T10:02:13.516Z,24.80
2022-08-17T10:04:49.799Z,24.50
2022-08-17T10:07:56.082Z,24.60
2022-08-17T10:10:29.611Z,24.50
2022-08-17T10:13:12.026Z,24.60
2022-08-17T10:15:48.129Z,24.60
2022-08-17T10:18:37.608Z,24.60
2022-08-17T10:21:35.036Z,24.60
2022-08-17T10:25:23.263Z,24.60
2022-08-17T10:27:52.588Z,24.60
2022-08-17T10:30:23.672Z,24.70
2022-08-17T10:32:55.684Z,24.70
2022-08-17T10:35:37.883Z,24.70
2022-08-17T10:38:21.635Z,24.70
2022-08-17T10:41:06.570Z,24.80
2022-08-17T10:44:40.322Z,24.80
2022-08-17T10:47:04.532Z,24.70
2022-08-17T10:49:37.093Z,24.70
2022-08-17T10:52:24.969Z,24.80
2022-08-17T10:54:51.831Z,24.70
2022-08-17T10:57:33.793Z,24.80
2022-08-17T11:00:02.756Z,24.80
2022-08-17T11:02:49.984Z,24.80
2022-08-17T11:05:32.947Z,24.80
2022-08-17T11:11:23.116Z,24.70
2022-08-17T11:14:06.171Z,24.70
2022-08-17T11:16:41.832Z,24.70
2022-08-17T11:19:11.384Z,24.60
2022-08-17T11:21:57.253Z,24.60
2022-08-17T11:24:44.648Z,24.60
2022-08-17T11:27:26.521Z,24.60
2022-08-17T11:30:02.099Z,24.40
2022-08-17T11:32:54.820Z,24.40
2022-08-17T11:35:21.701Z,24.40
2022-08-17T11:38:16.327Z,24.50
2022-08-17T11:40:52.229Z,24.50
2022-08-17T11:43:45.610Z,24.50
2022-08-17T11:47:15.593Z,24.50
2022-08-17T11:52:41.130Z,24.50
2022-08-17T11:55:36.632Z,24.40
2022-08-17T11:58:18.555Z,24.40
2022-08-17T12:03:33.261Z,24.30
2022-08-17T12:06:03.092Z,24.20
2022-08-17T12:08:33.442Z,24.20
2022-08-17T12:11:16.547Z,24.20
2022-08-17T12:14:04.538Z,24.10
2022-08-17T12:16:31.194Z,24.10
2022-08-17T12:19:02.627Z,24.10
2022-08-17T12:21:46.129Z,24.30
2022-08-17T12:24:29.261Z,24.20
2022-08-17T12:27:00.869Z,24.30
2022-08-17T12:29:35.411Z,24.10
2022-08-17T12:32:06.853Z,24.10
2022-08-17T12:34:39.230Z,24.10
2022-08-17T12:37:15.237Z,24.10
2022-08-17T12:39:55.956Z,24.00
2022-08-17T12:42:26.780Z,24.00
2022-08-17T12:44:53.492Z,24.00
2022-08-17T12:47:22.820Z,24.10
2022-08-17T12:49:52.905Z,24.10
2022-08-17T12:52:19.472Z,24.10
2022-08-17T12:54:51.708Z,24.20
2022-08-17T12:57:29.165Z,24.30
2022-08-17T13:00:01.235Z,24.30
2022-08-17T13:02:32.463Z,24.40
2022-08-17T13:05:01.429Z,24.40
2022-08-17T13:07:35.089Z,24.50
2022-08-17T13:10:02.869Z,24.50
2022-08-17T13:12:33.069Z,24.60
2022-08-17T13:15:00.325Z,24.60
2022-08-17T13:17:35.710Z,24.60
2022-08-17T13:20:05.365Z,24.60
2022-08-17T13:22:32.487Z,24.60
2022-08-17T13:25:07.293Z,24.60
2022-08-17T13:27:34.181Z,24.70
2022-08-17T13:30:07.747Z,24.70
2022-08-17T13:32:43.595Z,25.00
2022-08-17T13:35:39.947Z,25.20
2022-08-17T13:40:42.106Z,25.40
2022-08-17T13:43:10.242Z,25.40
2022-08-17T13:45:50.717Z,25.40
2022-08-17T13:48:23.532Z,25.30
2022-08-17T13:50:59.507Z,25.40
2022-08-17T13:53:50.415Z,25.50
2022-08-17T13:56:39.062Z,25.50
2022-08-17T13:59:12.634Z,25.50
2022-08-17T14:01:42.267Z,25.60
2022-08-17T14:04:18.901Z,25.40
2022-08-17T14:06:51.809Z,25.30
2022-08-17T14:09:25.943Z,25.20
2022-08-17T14:11:54.705Z,25.10
2022-08-17T14:14:23.048Z,25.10
2022-08-17T14:16:53.508Z,25.30
2022-08-17T14:19:21.947Z,25.30
2022-08-17T14:21:49.190Z,25.30
2022-08-17T14:24:23.756Z,25.20
2022-08-17T14:26:52.800Z,25.10
2022-08-17T14:29:24.145Z,25.00
2022-08-17T14:31:54.230Z,25.00
2022-08-17T14:34:22.043Z,25.20
2022-08-17T14:36:51.927Z,25.40
2022-08-17T14:39:20.326Z,25.30
2022-08-17T14:41:47.176Z,25.60
2022-08-17T14:44:14.092Z,25.50
2022-08-17T14:46:43.001Z,26.00
2022-08-17T14:49:11.583Z,25.60
2022-08-17T14:51:41.632Z,25.60
2022-08-17T14:54:12.023Z,25.60
2022-08-17T14:57:22.630Z,25.40
2022-08-17T14:59:45.665Z,25.40
2022-08-17T15:02:13.142Z,25.30
2022-08-17T15:04:45.401Z,25.20
2022-08-17T15:07:12.367Z,25.30
2022-08-17T15:09:39.099Z,25.20
2022-08-17T15:12:06.526Z,25.30
2022-08-17T15:14:35.260Z,25.30
2022-08-17T15:17:03.052Z,25.40
2022-08-17T15:19:29.715Z,25.40
2022-08-17T15:21:56.280Z,25.30
2022-08-17T15:24:22.893Z,25.20
2022-08-17T15:26:49.791Z,25.20
2022-08-17T15:29:16.422Z,25.20
2022-08-17T15:31:43.636Z,25.20
2022-08-17T15:34:10.285Z,25.30
2022-08-17T15:36:36.980Z,25.30
2022-08-17T15:39:04.278Z,25.40
2022-08-17T15:41:31.181Z,25.20
2022-08-17T15:43:57.852Z,25.30
2022-08-17T15:46:25.847Z,25.20
2022-08-17T15:48:55.531Z,25.20
2022-08-17T15:51:26.991Z,25.10
2022-08-17T15:53:56.706Z,25.00
2022-08-17T15:56:25.133Z,25.00
2022-08-17T15:58:52.505Z,25.00
2022-08-17T16:01:42.253Z,25.00
2022-08-17T16:04:26.775Z,25.10
2022-08-17T16:06:54.561Z,25.30
2022-08-17T16:09:21.150Z,25.30
2022-08-17T16:11:53.688Z,25.20
2022-08-17T16:14:22.285Z,25.20
2022-08-17T16:16:49.749Z,25.10
2022-08-17T16:19:16.333Z,24.90
2022-08-17T16:21:43.386Z,24.90
2022-08-17T16:24:13.081Z,24.90
2022-08-17T16:26:41.577Z,25.00
2022-08-17T16:29:08.775Z,24.80
2022-08-17T16:31:37.506Z,24.90
2022-08-17T16:34:18.071Z,24.90
2022-08-17T16:36:55.559Z,24.80
2022-08-17T16:39:27.612Z,24.70
2022-08-17T16:41:55.796Z,24.70
2022-08-17T16:44:22.529Z,24.60
2022-08-17T16:46:50.092Z,24.70
2022-08-17T16:49:31.559Z,24.80
2022-08-17T16:52:03.546Z,24.80
2022-08-17T16:54:30.264Z,24.80
2022-08-17T16:56:56.912Z,24.90
2022-08-17T16:59:38.787Z,24.80
2022-08-17T17:02:11.092Z,24.80
2022-08-17T17:04:57.445Z,24.70
2022-08-17T17:07:53.260Z,24.70
2022-08-17T17:10:26.124Z,24.60
2022-08-17T17:13:02.120Z,24.50
2022-08-17T17:15:57.523Z,24.50
2022-08-17T17:18:37.550Z,24.50
2022-08-17T17:21:06.359Z,24.60
2022-08-17T17:23:44.721Z,24.50
2022-08-17T17:26:38.878Z,24.50
2022-08-17T17:29:28.232Z,24.40
2022-08-17T17:32:20.933Z,24.40
2022-08-17T17:35:01.640Z,24.40
2022-08-17T17:37:32.976Z,24.40
2022-08-17T17:40:28.236Z,24.30
2022-08-17T17:43:09.422Z,24.30
2022-08-17T17:46:26.587Z,24.30
2022-08-17T17:48:48.368Z,24.30
2022-08-17T17:52:09.202Z,24.20
2022-08-17T17:54:33.670Z,24.30
2022-08-17T17:57:29.521Z,24.30
2022-08-17T18:00:14.144Z,24.20
2022-08-17T18:03:04.264Z,24.20
2022-08-17T18:06:00.606Z,24.20
2022-08-17T18:08:52.812Z,24.20
2022-08-17T18:11:42.292Z,24.10
2022-08-17T18:14:37.664Z,24.10
2022-08-17T18:17:05.640Z,24.10
2022-08-17T18:19:32.584Z,24.10
2022-08-17T18:22:06.693Z,24.10
2022-08-17T18:24:39.746Z,24.00
2022-08-17T18:27:24.739Z,24.00
2022-08-17T18:29:54.748Z,24.00
2022-08-17T18:32:32.363Z,23.90
2022-08-17T18:35:10.197Z,23.90
2022-08-17T18:37:51.261Z,23.90
2022-08-17T18:40:18.382Z,23.90
2022-08-17T18:43:12.329Z,23.80
2022-08-17T18:45:38.906Z,23.70
2022-08-17T18:48:17.776Z,23.70
2022-08-17T18:50:44.545Z,23.50
2022-08-17T18:53:30.325Z,23.60
2022-08-17T18:56:22.919Z,23.50
2022-08-17T18:59:17.204Z,23.50
2022-08-17T19:01:59.977Z,23.50
2022-08-17T19:04:36.594Z,23.50
2022-08-17T19:07:21.996Z,23.50
2022-08-17T19:09:53.469Z,23.50
2022-08-17T19:12:52.472Z,23.40
2022-08-17T19:16:12.049Z,23.40
2022-08-17T19:18:41.443Z,23.30
2022-08-17T19:21:12.386Z,23.30
2022-08-17T19:23:53.362Z,23.30
2022-08-17T19:26:54.419Z,23.30
2022-08-17T19:29:37.075Z,23.20
2022-08-17T19:32:06.461Z,23.20
2022-08-17T19:34:35.484Z,23.00
2022-08-17T19:37:25.167Z,23.00
2022-08-17T19:39:54.783Z,23.00
2022-08-17T19:42:47.510Z,23.00
2022-08-17T19:45:29.394Z,22.90
2022-08-17T19:48:23.974Z,22.80
2022-08-17T19:51:10.435Z,22.80
2022-08-17T19:54:04.356Z,22.70
2022-08-17T19:57:08.681Z,22.70
2022-08-17T19:59:55.579Z,22.60
2022-08-17T20:02:46.824Z,22.50
2022-08-17T20:05:25.510Z,22.60
2022-08-17T20:08:00.417Z,22.60
2022-08-17T20:10:36.371Z,22.50
2022-08-17T20:13:08.901Z,22.30
2022-08-17T20:15:40.185Z,22.30
2022-08-17T20:18:15.184Z,22.20
2022-08-17T20:20:58.141Z,22.20
2022-08-17T20:23:43.204Z,22.20
2022-08-17T20:26:33.833Z,22.20
2022-08-17T20:29:16.520Z,22.10
2022-08-17T20:31:49.425Z,22.10
2022-08-17T20:34:33.410Z,22.30
2022-08-17T20:37:15.430Z,22.30
2022-08-17T20:39:43.751Z,22.40
2022-08-17T20:42:22.423Z,22.50
2022-08-17T20:44:57.887Z,22.50
2022-08-17T20:48:00.765Z,22.50
2022-08-17T20:50:34.465Z,22.50
2022-08-17T20:53:03.461Z,22.50
2022-08-17T20:55:51.868Z,22.50
2022-08-17T20:58:42.113Z,22.40
2022-08-17T21:01:20.162Z,22.40
2022-08-17T21:03:51.886Z,22.40
2022-08-17T21:06:21.914Z,22.10
2022-08-17T21:08:53.420Z,22.10
2022-08-17T21:12:02.306Z,22.00
2022-08-17T21:14:38.370Z,22.00
2022-08-17T21:17:29.366Z,21.90
2022-08-17T21:20:34.083Z,21.80
2022-08-17T21:23:18.721Z,21.80
2022-08-17T21:26:07.919Z,21.80
2022-08-17T21:29:00.929Z,21.80
2022-08-17T21:31:36.384Z,21.80
2022-08-17T21:34:15.318Z,21.80
2022-08-17T21:36:47.997Z,21.80
2022-08-17T21:39:39.105Z,21.80
2022-08-17T21:42:07.187Z,21.70
2022-08-17T21:44:41.786Z,21.60
2022-08-17T21:47:14.925Z,21.60
2022-08-17T21:49:41.554Z,21.60
2022-08-17T21:52:12.592Z,21.50
2022-08-17T21:54:47.994Z,21.50
2022-08-17T21:57:27.204Z,21.50
2022-08-17T21:59:57.330Z,21.40
2022-08-17T22:02:38.009Z,21.40
2022-08-17T22:05:11.431Z,21.40
2022-08-17T22:07:45.794Z,21.20
2022-08-17T22:10:37.673Z,21.10
2022-08-17T22:13:16.924Z,21.10
2022-08-17T22:15:47.243Z,21.00
2022-08-17T22:18:26.800Z,20.90
2022-08-17T22:20:56.493Z,20.90
2022-08-17T22:23:48.681Z,21.10
2022-08-17T22:26:17.890Z,20.90
2022-08-17T22:28:52.656Z,20.80
2022-08-17T22:31:24.454Z,20.80
2022-08-17T22:34:00.027Z,20.80
2022-08-17T22:36:30.958Z,20.90
2022-08-17T22:39:22.223Z,20.80
2022-08-17T22:42:02.342Z,20.90
2022-08-17T22:44:33.888Z,21.10
2022-08-17T22:47:16.824Z,21.20
2022-08-17T22:50:01.781Z,21.20
2022-08-17T22:52:32.414Z,21.20
2022-08-17T22:55:27.073Z,21.10
2022-08-17T22:58:12.457Z,21.00
2022-08-17T23:00:45.053Z,20.90
2022-08-17T23:03:14.625Z,20.80
2022-08-17T23:05:44.811Z,20.70
2022-08-17T23:08:13.415Z,20.70
2022-08-17T23:10:41.732Z,20.70
2022-08-17T23:13:11.702Z,20.70
2022-08-17T23:15:40.342Z,20.80
2022-08-17T23:18:07.762Z,21.00
2022-08-17T23:20:36.853Z,21.00
2022-08-17T23:23:07.741Z,20.90
2022-08-17T23:25:35.359Z,20.90
2022-08-17T23:28:05.202Z,20.80
2022-08-17T23:30:34.794Z,20.80
2022-08-17T23:33:05.403Z,20.70
2022-08-17T23:35:40.296Z,20.70
2022-08-17T23:38:09.795Z,20.60
2022-08-17T23:40:37.792Z,20.50
2022-08-17T23:43:17.434Z,20.50
2022-08-17T23:45:52.233Z,20.40
2022-08-17T23:48:34.130Z,20.40
2022-08-17T23:51:18.888Z,20.30
2022-08-17T23:53:49.942Z,20.20
2022-08-17T23:56:21.011Z,20.10
2022-08-17T23:58:47.621Z,20.10
